createdAt,value
2022-12-12T00:00:37.352Z,0.70
2022-12-12T00:03:29.133Z,0.60
2022-12-12T00:09:00.752Z,0.50
2022-12-12T00:11:52.335Z,0.50
2022-12-12T00:14:43.974Z,0.50
2022-12-12T00:17:35.681Z,0.50
2022-12-12T00:20:27.058Z,0.50
2022-12-12T00:23:21.324Z,0.50
2022-12-12T00:26:18.461Z,0.50
2022-12-12T00:29:10.330Z,0.60
2022-12-12T00:32:01.673Z,0.50
2022-12-12T00:34:53.708Z,0.50
2022-12-12T00:43:02.904Z,0.40
2022-12-12T00:46:04.061Z,0.40
2022-12-12T00:49:00.801Z,0.40
2022-12-12T00:51:52.681Z,0.30
2022-12-12T00:54:44.167Z,0.30
2022-12-12T00:57:35.994Z,0.30
2022-12-12T01:00:28.123Z,0.40
2022-12-12T01:05:58.009Z,0.40
2022-12-12T01:08:49.578Z,0.50
2022-12-12T01:11:41.212Z,0.40
2022-12-12T01:14:32.872Z,0.50
2022-12-12T01:17:24.582Z,0.50
2022-12-12T01:20:20.837Z,0.50
2022-12-12T01:25:52.161Z,0.60
2022-12-12T01:31:24.605Z,0.70
2022-12-12T01:34:17.203Z,0.60
2022-12-12T01:37:09.277Z,0.60
2022-12-12T01:40:01.013Z,0.60
2022-12-12T01:46:24.818Z,0.70
2022-12-12T01:49:25.069Z,0.60
2022-12-12T01:52:19.896Z,0.70
2022-12-12T01:55:15.025Z,0.70
2022-12-12T02:00:50.698Z,0.70
2022-12-12T02:03:43.633Z,0.60
2022-12-12T02:06:35.449Z,0.60
2022-12-12T02:09:28.282Z,0.50
2022-12-12T02:12:21.503Z,0.60
2022-12-12T02:15:15.491Z,0.60
2022-12-12T02:20:55.962Z,0.60
2022-12-12T02:27:29.459Z,0.60
2022-12-12T02:30:23.849Z,0.60
2022-12-12T02:33:38.089Z,0.60
2022-12-12T02:36:32.940Z,0.60
2022-12-12T02:42:21.545Z,0.50
2022-12-12T02:45:17.368Z,0.50
2022-12-12T02:48:12.706Z,0.40
2022-12-12T02:51:07.458Z,0.30
2022-12-12T02:56:54.010Z,0.20
2022-12-12T03:02:42.024Z,0.20
2022-12-12T03:08:27.037Z,0.30
2022-12-12T03:11:23.340Z,0.20
2022-12-12T03:14:18.269Z,0.20
2022-12-12T03:19:59.649Z,0.20
2022-12-12T03:22:54.031Z,0.10
2022-12-12T03:25:48.407Z,0.00
2022-12-12T03:28:43.493Z,0.00
2022-12-12T03:31:38.412Z,0.00
2022-12-12T03:34:34.301Z,0.10
2022-12-12T03:37:29.588Z,0.10
2022-12-12T03:40:24.421Z,0.10
2022-12-12T03:43:18.403Z,0.00
2022-12-12T03:46:13.174Z,0.00
2022-12-12T03:49:08.301Z,0.00
2022-12-12T03:52:02.792Z,0.10
2022-12-12T03:54:58.093Z,0.00
2022-12-12T03:57:53.631Z,0.00
2022-12-12T04:00:47.549Z,0.00
2022-12-12T04:03:43.359Z,0.00
2022-12-12T04:06:38.175Z,0.00
2022-12-12T04:09:48.684Z,-0.10
2022-12-12T04:13:03.235Z,-0.10
2022-12-12T04:16:00.119Z,-0.10
2022-12-12T04:18:55.172Z,-0.10
2022-12-12T04:22:07.176Z,-0.10
2022-12-12T04:25:02.498Z,-0.10
2022-12-12T04:27:56.575Z,-0.10
2022-12-12T04:30:48.279Z,-0.10
2022-12-12T04:36:22.710Z,-0.20
2022-12-12T04:39:16.624Z,-0.20
2022-12-12T04:42:10.687Z,-0.20
2022-12-12T04:45:04.992Z,-0.10
2022-12-12T04:47:58.383Z,-0.10
2022-12-12T04:50:52.697Z,-0.10
2022-12-12T04:56:28.394Z,-0.10
2022-12-12T04:59:20.525Z,-0.10
2022-12-12T05:02:18.312Z,-0.20
2022-12-12T05:05:15.423Z,-0.30
2022-12-12T05:10:47.927Z,-0.10
2022-12-12T05:13:41.081Z,-0.10
2022-12-12T05:16:36.154Z,-0.10
2022-12-12T05:19:28.125Z,-0.10
2022-12-12T05:22:19.966Z,-0.10
2022-12-12T05:25:12.683Z,-0.10
2022-12-12T05:36:05.912Z,-0.10
2022-12-12T05:41:37.071Z,-0.20
2022-12-12T05:47:13.052Z,-0.30
2022-12-12T05:50:08.377Z,-0.30
2022-12-12T06:01:08.774Z,-0.30
2022-12-12T06:04:00.322Z,-0.40
2022-12-12T06:06:56.088Z,-0.50
2022-12-12T06:09:49.650Z,-0.50
2022-12-12T06:12:41.639Z,-0.50
2022-12-12T06:15:33.108Z,-0.40
2022-12-12T06:21:10.212Z,-0.40
2022-12-12T06:24:02.069Z,-0.40
2022-12-12T06:26:53.209Z,-0.40
2022-12-12T06:29:45.209Z,-0.40
2022-12-12T06:32:36.782Z,-0.40
2022-12-12T06:35:28.312Z,-0.50
2022-12-12T06:40:59.945Z,-0.50
2022-12-12T06:43:52.680Z,-0.50
2022-12-12T06:46:44.505Z,-0.40
2022-12-12T06:49:36.348Z,-0.50
2022-12-12T06:52:28.068Z,-0.50
2022-12-12T06:58:06.100Z,-0.50
2022-12-12T07:00:57.816Z,-0.50
2022-12-12T07:06:28.267Z,-0.60
2022-12-12T07:09:20.778Z,-0.50
2022-12-12T07:12:12.505Z,-0.60
2022-12-12T07:15:05.598Z,-0.60
2022-12-12T07:23:26.595Z,-0.50
2022-12-12T07:26:20.754Z,-0.40
2022-12-12T07:29:14.737Z,-0.40
2022-12-12T07:32:11.069Z,-0.40
2022-12-12T07:35:04.836Z,-0.40
2022-12-12T07:37:56.919Z,-0.40
2022-12-12T07:40:48.213Z,-0.40
2022-12-12T07:46:23.739Z,-0.50
2022-12-12T07:49:15.740Z,-0.50
2022-12-12T07:54:53.166Z,-0.60
2022-12-12T07:57:47.135Z,-0.50
2022-12-12T08:00:40.995Z,-0.50
2022-12-12T08:06:13.027Z,-0.60
2022-12-12T08:09:04.667Z,-0.50
2022-12-12T08:11:58.900Z,-0.50
2022-12-12T08:14:53.748Z,-0.40
2022-12-12T08:17:46.184Z,-0.30
2022-12-12T08:25:56.777Z,-0.20
2022-12-12T08:28:49.532Z,-0.10
2022-12-12T08:31:42.089Z,0.00
2022-12-12T08:34:34.616Z,0.10
2022-12-12T08:37:26.798Z,0.10
2022-12-12T08:40:19.050Z,0.10
2022-12-12T08:45:56.214Z,0.20
2022-12-12T08:48:48.783Z,0.20
2022-12-12T08:51:44.188Z,0.20
2022-12-12T08:54:36.068Z,0.20
2022-12-12T08:57:28.025Z,0.30
2022-12-12T09:00:20.611Z,0.30
2022-12-12T09:05:54.905Z,0.40
2022-12-12T09:08:47.357Z,0.50
2022-12-12T09:14:22.354Z,0.50
2022-12-12T09:17:15.984Z,0.50
2022-12-12T09:20:08.976Z,0.50
2022-12-12T09:23:00.234Z,0.60
2022-12-12T09:25:52.392Z,0.60
2022-12-12T09:31:24.161Z,0.70
2022-12-12T09:34:15.619Z,0.80
2022-12-12T09:37:07.635Z,0.80
2022-12-12T09:45:26.430Z,1.10
2022-12-12T09:50:57.036Z,1.10
2022-12-12T09:53:51.837Z,1.10
2022-12-12T09:56:48.519Z,1.20
2022-12-12T09:59:44.845Z,1.20
2022-12-12T10:05:51.202Z,1.40
2022-12-12T10:08:45.395Z,1.50
2022-12-12T10:14:19.467Z,1.60
2022-12-12T10:20:09.178Z,1.60
2022-12-12T10:23:04.061Z,1.70
2022-12-12T10:28:45.033Z,1.80
2022-12-12T10:34:14.482Z,1.90
2022-12-12T10:37:13.450Z,1.90
2022-12-12T10:42:52.278Z,2.00
2022-12-12T10:51:13.169Z,2.20
2022-12-12T10:54:08.931Z,2.30
2022-12-12T10:57:20.057Z,2.30
2022-12-12T11:03:00.926Z,2.40
2022-12-12T11:05:55.093Z,2.40
2022-12-12T11:08:56.959Z,2.40
2022-12-12T11:12:00.234Z,2.50
2022-12-12T11:17:33.237Z,2.60
2022-12-12T11:20:28.620Z,2.60
2022-12-12T11:26:08.151Z,2.70
2022-12-12T11:31:44.824Z,2.80
2022-12-12T11:37:22.552Z,2.80
2022-12-12T11:46:08.784Z,2.90
2022-12-12T11:51:44.317Z,3.00
2022-12-12T11:54:35.711Z,3.10
2022-12-12T11:57:37.617Z,3.10
2022-12-12T12:06:21.969Z,3.30
2022-12-12T12:09:28.473Z,3.30
2022-12-12T12:12:23.301Z,3.30
2022-12-12T12:15:27.533Z,3.30
2022-12-12T12:24:16.943Z,3.40
2022-12-12T12:27:12.394Z,3.40
2022-12-12T12:30:21.520Z,3.40
2022-12-12T12:36:21.136Z,3.60
2022-12-12T12:42:03.271Z,3.60
2022-12-12T12:47:42.051Z,3.70
2022-12-12T12:50:36.976Z,3.70
2022-12-12T12:56:12.220Z,3.70
2022-12-12T12:59:08.589Z,3.80
2022-12-12T13:02:05.380Z,3.80
2022-12-12T13:05:07.360Z,3.90
2022-12-12T13:10:49.235Z,4.00
2022-12-12T13:16:33.058Z,4.10
2022-12-12T13:19:28.456Z,4.10
2022-12-12T13:22:22.880Z,4.10
2022-12-12T13:28:03.333Z,4.30
2022-12-12T13:31:13.391Z,4.30
2022-12-12T13:34:08.104Z,4.30
2022-12-12T13:37:00.747Z,4.40
2022-12-12T13:40:03.112Z,4.40
2022-12-12T13:43:04.084Z,4.40
2022-12-12T13:45:54.383Z,4.40
2022-12-12T13:48:50.191Z,4.40
2022-12-12T13:51:49.848Z,4.40
2022-12-12T13:54:51.925Z,4.40
2022-12-12T14:01:39.760Z,4.40
2022-12-12T14:07:16.552Z,4.40
2022-12-12T14:10:25.758Z,4.50
2022-12-12T14:13:31.342Z,4.50
2022-12-12T14:16:28.958Z,4.50
2022-12-12T14:22:30.099Z,4.30
2022-12-12T14:25:30.348Z,4.30
2022-12-12T14:31:17.565Z,4.20
2022-12-12T14:37:27.560Z,4.20
2022-12-12T14:40:22.116Z,4.20
2022-12-12T14:46:01.454Z,4.10
2022-12-12T14:51:48.405Z,4.30
2022-12-12T14:57:25.997Z,4.20
2022-12-12T15:00:21.339Z,4.10
2022-12-12T15:05:52.693Z,4.10
2022-12-12T15:08:44.616Z,4.10
2022-12-12T15:11:37.083Z,4.00
2022-12-12T15:14:29.423Z,4.00
2022-12-12T15:17:24.179Z,4.00
2022-12-12T15:20:20.692Z,4.00
2022-12-12T15:23:21.193Z,4.00
2022-12-12T15:26:20.294Z,3.90
2022-12-12T15:29:18.684Z,3.90
2022-12-12T15:32:16.459Z,3.90
2022-12-12T15:35:16.268Z,3.90
2022-12-12T15:38:15.676Z,3.90
2022-12-12T15:41:13.342Z,3.90
2022-12-12T15:44:02.694Z,3.80
2022-12-12T15:46:56.013Z,3.80
2022-12-12T15:49:48.989Z,3.80
2022-12-12T15:52:42.415Z,3.80
2022-12-12T15:55:35.802Z,3.80
2022-12-12T15:58:32.132Z,3.80
2022-12-12T16:01:28.462Z,3.80
2022-12-12T16:04:27.024Z,3.70
2022-12-12T16:10:06.637Z,3.70
2022-12-12T16:13:03.373Z,3.80
2022-12-12T16:15:55.324Z,3.70
2022-12-12T16:18:47.119Z,3.70
2022-12-12T16:24:29.228Z,3.70
2022-12-12T16:27:21.725Z,3.80
2022-12-12T16:30:15.799Z,3.70
2022-12-12T16:33:15.577Z,3.70
2022-12-12T16:36:10.754Z,3.70
2022-12-12T16:39:02.138Z,3.60
2022-12-12T16:41:53.832Z,3.60
2022-12-12T16:44:47.307Z,3.60
2022-12-12T16:47:38.841Z,3.70
2022-12-12T16:50:30.319Z,3.70
2022-12-12T16:53:21.969Z,3.70
2022-12-12T16:56:16.544Z,3.70
2022-12-12T16:59:09.074Z,3.70
2022-12-12T17:02:00.260Z,3.70
2022-12-12T17:04:53.258Z,3.70
2022-12-12T17:07:44.473Z,3.60
2022-12-12T17:10:36.867Z,3.70
2022-12-12T17:13:29.652Z,3.60
2022-12-12T17:16:27.551Z,3.60
2022-12-12T17:22:06.868Z,3.50
2022-12-12T17:24:58.338Z,3.50
2022-12-12T17:27:50.572Z,3.40
2022-12-12T17:30:42.667Z,3.50
2022-12-12T17:36:20.084Z,3.50
2022-12-12T17:39:12.107Z,3.50
2022-12-12T17:42:04.831Z,3.50
2022-12-12T17:44:57.149Z,3.50
2022-12-12T17:50:30.003Z,3.50
2022-12-12T17:53:21.912Z,3.40
2022-12-12T17:56:16.093Z,3.40
2022-12-12T17:59:10.022Z,3.50
2022-12-12T18:02:01.939Z,3.40
2022-12-12T18:04:53.960Z,3.50
2022-12-12T18:07:45.458Z,3.40
2022-12-12T18:10:37.593Z,3.40
2022-12-12T18:13:29.175Z,3.40
2022-12-12T18:16:21.358Z,3.40
2022-12-12T18:19:15.800Z,3.40
2022-12-12T18:22:08.239Z,3.40
2022-12-12T18:25:00.875Z,3.30
2022-12-12T18:27:52.782Z,3.30
2022-12-12T18:30:43.815Z,3.30
2022-12-12T18:33:35.412Z,3.30
2022-12-12T18:36:28.759Z,3.40
2022-12-12T18:39:20.157Z,3.30
2022-12-12T18:42:12.403Z,3.30
2022-12-12T18:45:04.560Z,3.30
2022-12-12T18:47:56.252Z,3.30
2022-12-12T18:50:47.745Z,3.30
2022-12-12T18:53:41.709Z,3.30
2022-12-12T18:59:18.421Z,3.30
2022-12-12T19:02:13.803Z,3.20
2022-12-12T19:05:05.539Z,3.30
2022-12-12T19:07:57.247Z,3.30
2022-12-12T19:10:49.045Z,3.30
2022-12-12T19:13:41.158Z,3.40
2022-12-12T19:16:32.615Z,3.30
2022-12-12T19:19:24.647Z,3.30
2022-12-12T19:22:43.916Z,3.20
2022-12-12T19:25:12.383Z,3.30
2022-12-12T19:28:04.538Z,3.40
2022-12-12T19:30:56.180Z,3.30
2022-12-12T19:33:50.158Z,3.30
2022-12-12T19:36:42.435Z,3.40
2022-12-12T19:39:34.226Z,3.30
2022-12-12T19:42:26.327Z,3.20
2022-12-12T19:45:18.350Z,3.20
2022-12-12T19:48:11.689Z,3.20
2022-12-12T19:51:09.029Z,3.20
2022-12-12T19:54:01.950Z,3.20
2022-12-12T19:57:04.849Z,3.20
2022-12-12T19:59:56.558Z,3.20
2022-12-12T20:05:26.584Z,3.20
2022-12-12T20:08:18.391Z,3.20
2022-12-12T20:11:13.297Z,3.20
2022-12-12T20:14:15.512Z,3.20
2022-12-12T20:17:14.089Z,3.20
2022-12-12T20:20:25.040Z,3.30
2022-12-12T20:23:16.681Z,3.20
2022-12-12T20:26:10.053Z,3.20
2022-12-12T20:31:45.574Z,3.10
2022-12-12T20:34:37.482Z,3.10
2022-12-12T20:37:29.445Z,3.10
2022-12-12T20:43:05.068Z,3.10
2022-12-12T20:45:57.216Z,3.30
2022-12-12T20:48:50.345Z,3.30
2022-12-12T20:51:58.900Z,3.20
2022-12-12T20:54:36.003Z,3.20
2022-12-12T20:57:27.583Z,3.20
2022-12-12T21:00:20.503Z,3.20
2022-12-12T21:05:54.726Z,3.10
2022-12-12T21:08:47.762Z,3.10
2022-12-12T21:14:30.954Z,3.10
2022-12-12T21:17:23.624Z,3.10
2022-12-12T21:20:18.161Z,3.20
2022-12-12T21:23:09.639Z,3.10
2022-12-12T21:26:07.912Z,3.10
2022-12-12T21:29:02.032Z,3.00
2022-12-12T21:31:55.264Z,2.90
2022-12-12T21:34:46.945Z,2.80
2022-12-12T21:40:19.804Z,2.50
2022-12-12T21:43:11.475Z,2.40
2022-12-12T21:46:05.200Z,2.40
2022-12-12T21:49:24.717Z,2.20
2022-12-12T21:52:15.805Z,2.20
2022-12-12T21:55:10.598Z,2.10
2022-12-12T22:00:43.948Z,1.90
2022-12-12T22:06:16.191Z,1.80
2022-12-12T22:09:10.274Z,1.80
2022-12-12T22:12:03.621Z,1.70
2022-12-12T22:17:36.168Z,1.60
2022-12-12T22:20:36.187Z,1.60
2022-12-12T22:23:27.534Z,1.50
2022-12-12T22:26:22.132Z,1.50
2022-12-12T22:29:15.795Z,1.50
2022-12-12T22:32:07.861Z,1.40
2022-12-12T22:34:59.562Z,1.40
2022-12-12T22:40:29.795Z,1.30
2022-12-12T22:43:22.544Z,1.30
2022-12-12T22:46:14.355Z,1.40
2022-12-12T22:49:05.897Z,1.40
2022-12-12T22:51:59.307Z,1.40
2022-12-12T22:57:32.112Z,1.40
2022-12-12T23:00:24.845Z,1.30
2022-12-12T23:03:20.306Z,1.20
2022-12-12T23:06:13.969Z,1.30
2022-12-12T23:09:08.210Z,1.30
2022-12-12T23:11:59.565Z,1.30
2022-12-12T23:14:51.152Z,1.30
2022-12-12T23:20:26.146Z,1.30
2022-12-12T23:23:17.784Z,1.30
2022-12-12T23:26:11.307Z,1.30
2022-12-12T23:29:03.052Z,1.30
2022-12-12T23:31:55.055Z,1.30
2022-12-12T23:34:49.486Z,1.30
2022-12-12T23:40:19.410Z,1.30
2022-12-12T23:43:10.896Z,1.30
2022-12-12T23:46:05.020Z,1.30
2022-12-12T23:48:56.942Z,1.30
2022-12-12T23:51:50.714Z,1.30
2022-12-12T23:54:42.878Z,1.30
